Pagrindinis puslapis
METAR-TAF:

METAR-TAF

Oro uostai :

Tortola, Mergelių Salos

platuma: 18-27N, ilguma: 064-32W, Aukštis: 4 m

Dabartinis oras

Ataskaita buvo paskelbta 53 minutes, ne 01:00 UTC
Vėjas 5 kt iš Rytų/Šiaurės Rytų
Temperatūra 26°C
Drėgmė 79%
Slėgis 1016 hPa
Matomumas: 16.1 km
Mažai debesys ne aukštis 2100 ft

METAR: TUPJ 290100Z 06005KT 10SM FEW021 26/22 A2999 RMK Q1015 VIS16KM

Laikas: 21:53 (01:53 UTC)

Prognozė

Ataskaita buvo paskelbta 8 valandos ir 53 minutes, ne 17:00 UTC
Prognozė galioja nuo 28 metu 18 UTC su 29 metu 18 UTC
Vėjas 10 kt iš Rytų
Matomumas 10 km arba daugiau
Išsisklaidę debesys ne aukštis 2000 ft

TAF: TUPJ 281700Z 2818/2918 10010KT 9999 SCT020

Orai ataskaitas ir orų prognozės (METAR, TAF).

turimą stotys yra geltonos ir raudonos taškus žemėlapyje.

Perkelti pele per norėdami pamatyti stoties vardą.

Tada spustelėkite, norėdami matyti oro stebėjimo ir prognozės.

Norėdami pakeisti žemėlapį: spustelėkite ant žalios mygtukų su juodo kryžiaus žemyn,; žalią mygtuką su brūkšneliu, jei norite nutolinti; arba žalių rodyklių gretimoms žemėlapius.


METAR-TAF: